createdAt,value
2023-03-25T00:01:26.125Z,99758.63
2023-03-25T00:03:54.724Z,99750.14
2023-03-25T00:06:23.034Z,99755.94
2023-03-25T00:08:52.033Z,99763.48
2023-03-25T00:11:20.624Z,99764.52
2023-03-25T00:13:49.840Z,99760.23
2023-03-25T00:16:25.882Z,99755.77
2023-03-25T00:18:54.212Z,99756.71
2023-03-25T00:21:23.488Z,99763.16
2023-03-25T00:23:51.994Z,99760.27
2023-03-25T00:26:21.645Z,99750.63
2023-03-25T00:28:49.893Z,99743.08
2023-03-25T00:31:19.732Z,99746.85
2023-03-25T00:33:50.843Z,99739.27
2023-03-25T00:36:22.907Z,99739.69
2023-03-25T00:38:51.577Z,99739.17
2023-03-25T00:41:28.235Z,99738.05
2023-03-25T00:43:58.204Z,99742.34
2023-03-25T00:46:28.584Z,99742.77
2023-03-25T00:48:57.452Z,99742.39
2023-03-25T00:51:31.374Z,99752.85
2023-03-25T00:54:03.518Z,99753.14
2023-03-25T00:56:33.375Z,99754.96
2023-03-25T00:59:01.627Z,99756.61
2023-03-25T01:01:30.054Z,99755.59
2023-03-25T01:04:00.593Z,99753.61
2023-03-25T01:06:32.527Z,99748.23
2023-03-25T01:09:06.175Z,99744.79
2023-03-25T01:11:37.882Z,99748.14
2023-03-25T01:14:07.860Z,99749.70
2023-03-25T01:16:38.411Z,99747.25
2023-03-25T01:19:06.728Z,99746.02
2023-03-25T01:21:36.813Z,99745.27
2023-03-25T01:24:06.905Z,99742.86
2023-03-25T01:26:35.462Z,99745.71
2023-03-25T01:29:05.384Z,99744.71
2023-03-25T01:31:34.763Z,99746.91
2023-03-25T01:34:03.439Z,99751.02
2023-03-25T01:36:31.938Z,99752.48
2023-03-25T01:39:02.687Z,99752.69
2023-03-25T01:41:42.681Z,99748.04
2023-03-25T01:44:20.773Z,99744.76
2023-03-25T01:46:53.331Z,99741.36
2023-03-25T01:49:30.231Z,99741.45
2023-03-25T01:52:02.464Z,99742.58
2023-03-25T01:54:30.912Z,99742.13
2023-03-25T01:57:00.210Z,99743.21
2023-03-25T01:59:28.858Z,99740.16
2023-03-25T02:02:02.556Z,99741.36
2023-03-25T02:04:39.546Z,99739.92
2023-03-25T02:07:09.086Z,99734.83
2023-03-25T02:09:38.927Z,99730.40
2023-03-25T02:12:09.007Z,99732.43
2023-03-25T02:14:39.277Z,99734.11
2023-03-25T02:17:29.299Z,99734.48
2023-03-25T02:20:09.439Z,99727.00
2023-03-25T02:23:22.175Z,99728.97
2023-03-25T02:26:19.885Z,99725.58
2023-03-25T02:28:56.248Z,99722.01
2023-03-25T02:31:40.058Z,99727.20
2023-03-25T02:34:38.009Z,99726.26
2023-03-25T02:37:41.722Z,99723.20
2023-03-25T02:40:12.456Z,99723.35
2023-03-25T02:42:53.770Z,99719.58
2023-03-25T02:45:34.077Z,99717.92
2023-03-25T02:48:05.737Z,99712.91
2023-03-25T02:50:38.048Z,99715.55
2023-03-25T02:53:11.039Z,99713.80
2023-03-25T02:55:42.443Z,99714.89
2023-03-25T02:58:13.553Z,99718.73
2023-03-25T03:00:42.992Z,99716.98
2023-03-25T03:03:13.523Z,99712.33
2023-03-25T03:05:46.491Z,99712.95
2023-03-25T03:08:14.999Z,99711.11
2023-03-25T03:10:48.200Z,99716.20
2023-03-25T03:13:41.152Z,99715.68
2023-03-25T03:16:31.100Z,99722.65
2023-03-25T03:19:09.847Z,99727.84
2023-03-25T03:21:47.509Z,99730.54
2023-03-25T03:24:21.188Z,99731.85
2023-03-25T03:26:58.156Z,99731.00
2023-03-25T03:29:37.061Z,99732.80
2023-03-25T03:32:22.005Z,99732.48
2023-03-25T03:34:53.369Z,99725.32
2023-03-25T03:37:32.980Z,99718.83
2023-03-25T03:40:01.254Z,99721.23
2023-03-25T03:42:34.782Z,99719.29
2023-03-25T03:45:07.876Z,99718.45
2023-03-25T03:47:41.598Z,99713.02
2023-03-25T03:50:14.541Z,99714.12
2023-03-25T03:52:52.603Z,99712.95
2023-03-25T03:55:29.251Z,99709.16
2023-03-25T03:58:02.812Z,99704.16
2023-03-25T04:01:00.344Z,99702.29
2023-03-25T04:03:39.105Z,99702.31
2023-03-25T04:06:27.136Z,99703.51
2023-03-25T04:09:28.371Z,99703.46
2023-03-25T04:12:00.736Z,99705.16
2023-03-25T04:14:33.209Z,99702.23
2023-03-25T04:17:01.951Z,99703.15
2023-03-25T04:19:30.253Z,99708.11
2023-03-25T04:22:01.932Z,99704.09
2023-03-25T04:24:31.646Z,99707.45
2023-03-25T04:27:03.640Z,99708.79
2023-03-25T04:29:32.157Z,99714.13
2023-03-25T04:32:01.374Z,99706.91
2023-03-25T04:34:29.973Z,99709.48
2023-03-25T04:36:59.012Z,99708.36
2023-03-25T04:39:29.968Z,99711.48
2023-03-25T04:42:03.688Z,99711.83
2023-03-25T04:44:39.406Z,99710.70
2023-03-25T04:47:07.942Z,99708.52
2023-03-25T04:49:38.424Z,99707.05
2023-03-25T04:52:09.469Z,99707.58
2023-03-25T04:54:40.798Z,99704.90
2023-03-25T04:57:09.896Z,99704.60
2023-03-25T04:59:38.548Z,99696.27
2023-03-25T05:02:06.910Z,99686.23
2023-03-25T05:04:35.439Z,99696.23
2023-03-25T05:07:07.821Z,99691.20
2023-03-25T05:09:38.196Z,99688.02
2023-03-25T05:12:11.508Z,99686.13
2023-03-25T05:14:40.909Z,99684.49
2023-03-25T05:17:09.679Z,99676.80
2023-03-25T05:19:38.012Z,99678.91
2023-03-25T05:22:07.869Z,99678.77
2023-03-25T05:24:37.293Z,99680.59
2023-03-25T05:27:10.524Z,99679.72
2023-03-25T05:29:39.653Z,99675.58
2023-03-25T05:32:08.080Z,99672.05
2023-03-25T05:34:38.770Z,99672.73
2023-03-25T05:37:07.017Z,99672.09
2023-03-25T05:39:39.134Z,99670.42
2023-03-25T05:42:11.012Z,99670.22
2023-03-25T05:44:51.259Z,99666.88
2023-03-25T05:47:24.358Z,99664.23
2023-03-25T05:49:54.086Z,99662.83
2023-03-25T05:52:24.813Z,99662.73
2023-03-25T05:54:53.195Z,99662.48
2023-03-25T05:57:21.821Z,99660.48
2023-03-25T05:59:50.388Z,99657.88
2023-03-25T06:02:18.811Z,99653.39
2023-03-25T06:04:50.568Z,99647.56
2023-03-25T06:07:22.388Z,99641.08
2023-03-25T06:09:56.028Z,99643.77
2023-03-25T06:12:27.669Z,99641.95
2023-03-25T06:14:55.984Z,99647.85
2023-03-25T06:17:24.461Z,99647.56
2023-03-25T06:19:52.715Z,99645.39
2023-03-25T06:22:22.256Z,99640.93
2023-03-25T06:24:53.364Z,99635.08
2023-03-25T06:27:23.896Z,99635.35
2023-03-25T06:29:52.257Z,99643.34
2023-03-25T06:32:20.520Z,99644.22
2023-03-25T06:34:48.794Z,99643.52
2023-03-25T06:37:18.187Z,99642.30
2023-03-25T06:39:49.888Z,99635.90
2023-03-25T06:42:24.105Z,99633.89
2023-03-25T06:45:08.755Z,99629.10
2023-03-25T06:48:00.790Z,99629.45
2023-03-25T06:50:29.828Z,99635.63
2023-03-25T06:52:58.847Z,99634.07
2023-03-25T06:55:27.666Z,99631.22
2023-03-25T06:57:56.472Z,99630.62
2023-03-25T07:00:28.611Z,99630.57
2023-03-25T07:02:58.843Z,99634.61
2023-03-25T07:05:27.245Z,99623.86
2023-03-25T07:07:59.038Z,99619.65
2023-03-25T07:10:27.364Z,99619.96
2023-03-25T07:12:55.850Z,99612.08
2023-03-25T07:15:25.292Z,99609.02
2023-03-25T07:17:53.560Z,99616.10
2023-03-25T07:20:23.220Z,99617.30
2023-03-25T07:22:55.019Z,99614.70
2023-03-25T07:25:23.566Z,99613.44
2023-03-25T07:27:53.080Z,99611.31
2023-03-25T07:30:22.060Z,99611.02
2023-03-25T07:32:50.807Z,99608.09
2023-03-25T07:35:20.437Z,99607.77
2023-03-25T07:37:48.687Z,99607.05
2023-03-25T07:40:17.577Z,99607.65
2023-03-25T07:42:45.856Z,99600.39
2023-03-25T07:45:22.743Z,99595.90
2023-03-25T07:47:53.456Z,99592.45
2023-03-25T07:50:24.925Z,99589.69
2023-03-25T07:52:57.544Z,99588.11
2023-03-25T07:55:26.036Z,99586.17
2023-03-25T07:57:54.328Z,99580.60
2023-03-25T08:00:27.174Z,99579.34
2023-03-25T08:02:56.739Z,99582.33
2023-03-25T08:05:28.370Z,99580.42
2023-03-25T08:08:00.290Z,99572.23
2023-03-25T08:10:28.839Z,99572.18
2023-03-25T08:13:04.039Z,99564.56
2023-03-25T08:15:35.659Z,99565.02
2023-03-25T08:18:05.369Z,99570.52
2023-03-25T08:20:39.615Z,99567.59
2023-03-25T08:23:12.723Z,99559.50
2023-03-25T08:25:43.922Z,99550.98
2023-03-25T08:28:17.975Z,99541.16
2023-03-25T08:30:47.064Z,99539.67
2023-03-25T08:33:16.774Z,99538.42
2023-03-25T08:35:57.442Z,99540.57
2023-03-25T08:38:34.251Z,99536.23
2023-03-25T08:41:04.935Z,99536.17
2023-03-25T08:43:33.544Z,99531.52
2023-03-25T08:46:08.598Z,99524.84
2023-03-25T08:48:38.064Z,99521.45
2023-03-25T08:51:07.316Z,99514.20
2023-03-25T08:53:37.838Z,99514.77
2023-03-25T08:56:07.612Z,99506.08
2023-03-25T08:58:38.281Z,99500.98
2023-03-25T09:01:07.363Z,99492.33
2023-03-25T09:03:38.775Z,99497.98
2023-03-25T09:06:08.862Z,99503.31
2023-03-25T09:08:37.357Z,99505.59
2023-03-25T09:11:08.525Z,99499.48
2023-03-25T09:13:41.536Z,99498.11
2023-03-25T09:16:10.579Z,99501.41
2023-03-25T09:18:45.373Z,99508.20
2023-03-25T09:21:13.668Z,99503.45
2023-03-25T09:23:43.386Z,99498.70
2023-03-25T09:26:13.111Z,99497.61
2023-03-25T09:28:43.657Z,99507.50
2023-03-25T09:31:12.900Z,99504.09
2023-03-25T09:33:44.206Z,99499.96
2023-03-25T09:36:13.234Z,99501.84
2023-03-25T09:38:47.979Z,99493.02
2023-03-25T09:41:35.234Z,99489.36
2023-03-25T09:44:22.255Z,99484.90
2023-03-25T09:46:50.933Z,99483.45
2023-03-25T09:49:21.815Z,99483.02
2023-03-25T09:51:53.270Z,99481.56
2023-03-25T09:54:30.322Z,99480.91
2023-03-25T09:57:08.157Z,99481.56
2023-03-25T09:59:49.335Z,99479.48
2023-03-25T10:02:45.756Z,99480.14
2023-03-25T10:05:24.100Z,99480.45
2023-03-25T10:07:56.599Z,99480.67
2023-03-25T10:10:27.697Z,99482.09
2023-03-25T10:13:15.182Z,99467.16
2023-03-25T10:16:31.668Z,99452.48
2023-03-25T10:19:30.443Z,99445.49
2023-03-25T10:22:07.388Z,99440.38
2023-03-25T10:24:51.200Z,99443.09
2023-03-25T10:27:36.148Z,99447.33
2023-03-25T10:30:20.843Z,99446.30
2023-03-25T10:32:59.671Z,99449.09
2023-03-25T10:35:39.817Z,99441.13
2023-03-25T10:38:21.591Z,99440.54
2023-03-25T10:40:54.519Z,99441.73
2023-03-25T10:43:23.779Z,99434.52
2023-03-25T10:45:57.499Z,99430.63
2023-03-25T10:48:28.180Z,99432.96
2023-03-25T10:51:11.457Z,99428.25
2023-03-25T10:53:40.850Z,99420.09
2023-03-25T10:56:14.222Z,99418.28
2023-03-25T10:58:42.961Z,99417.42
2023-03-25T11:01:17.949Z,99413.16
2023-03-25T11:04:09.141Z,99415.09
2023-03-25T11:06:42.325Z,99411.92
2023-03-25T11:09:30.792Z,99403.95
2023-03-25T11:12:05.546Z,99402.60
2023-03-25T11:14:37.784Z,99399.72
2023-03-25T11:17:15.592Z,99396.66
2023-03-25T11:19:52.575Z,99390.33
2023-03-25T11:22:37.164Z,99386.03
2023-03-25T11:25:12.477Z,99381.13
2023-03-25T11:27:46.800Z,99389.00
2023-03-25T11:30:20.432Z,99394.83
2023-03-25T11:33:14.119Z,99392.19
2023-03-25T11:35:44.623Z,99387.63
2023-03-25T11:38:15.313Z,99393.03
2023-03-25T11:40:54.565Z,99388.92
2023-03-25T11:43:26.482Z,99389.83
2023-03-25T11:45:55.758Z,99388.52
2023-03-25T11:48:24.962Z,99389.19
2023-03-25T11:50:57.826Z,99391.45
2023-03-25T11:53:27.699Z,99390.38
2023-03-25T11:56:04.763Z,99390.17
2023-03-25T11:58:34.393Z,99396.02
2023-03-25T12:01:06.456Z,99394.57
2023-03-25T12:03:36.601Z,99389.73
2023-03-25T12:06:16.972Z,99389.20
2023-03-25T12:08:49.934Z,99392.09
2023-03-25T12:11:29.335Z,99393.05
2023-03-25T12:14:24.825Z,99392.19
2023-03-25T12:17:25.667Z,99390.08
2023-03-25T12:20:25.145Z,99385.67
2023-03-25T12:23:28.719Z,99384.62
2023-03-25T12:26:12.700Z,99388.12
2023-03-25T12:29:04.111Z,99390.84
2023-03-25T12:31:43.098Z,99389.80
2023-03-25T12:34:51.911Z,99388.71
2023-03-25T12:37:47.574Z,99384.39
2023-03-25T12:40:38.036Z,99388.10
2023-03-25T12:43:21.614Z,99388.34
2023-03-25T12:45:55.913Z,99385.27
2023-03-25T12:48:43.445Z,99383.62
2023-03-25T12:51:40.005Z,99377.31
2023-03-25T12:54:23.653Z,99373.81
2023-03-25T12:57:13.633Z,99372.27
2023-03-25T13:00:01.283Z,99371.18
2023-03-25T13:02:54.921Z,99368.98
2023-03-25T13:05:27.539Z,99367.98
2023-03-25T13:07:59.656Z,99364.91
2023-03-25T13:10:34.040Z,99368.28
2023-03-25T13:13:04.463Z,99359.42
2023-03-25T13:15:44.074Z,99356.60
2023-03-25T13:18:27.083Z,99349.17
2023-03-25T13:21:14.220Z,99349.64
2023-03-25T13:23:45.709Z,99344.17
2023-03-25T13:26:18.335Z,99343.28
2023-03-25T13:29:12.314Z,99335.06
2023-03-25T13:31:42.548Z,99334.10
2023-03-25T13:34:14.306Z,99332.02
2023-03-25T13:36:53.561Z,99332.16
2023-03-25T13:39:25.516Z,99331.98
2023-03-25T13:42:00.391Z,99331.23
2023-03-25T13:44:47.160Z,99326.52
2023-03-25T13:47:37.482Z,99315.98
2023-03-25T13:50:29.285Z,99314.92
2023-03-25T13:53:24.643Z,99310.46
2023-03-25T13:56:11.665Z,99307.25
2023-03-25T13:59:05.656Z,99301.44
2023-03-25T14:01:52.911Z,99299.80
2023-03-25T14:04:44.683Z,99298.96
2023-03-25T14:07:21.356Z,99297.91
2023-03-25T14:10:19.213Z,99301.92
2023-03-25T14:12:51.303Z,99299.13
2023-03-25T14:15:34.489Z,99298.48
2023-03-25T14:18:03.209Z,99289.38
2023-03-25T14:20:37.749Z,99284.67
2023-03-25T14:23:09.253Z,99284.70
2023-03-25T14:25:46.275Z,99282.06
2023-03-25T14:28:32.074Z,99280.67
2023-03-25T14:31:12.182Z,99276.65
2023-03-25T14:34:02.433Z,99270.45
2023-03-25T14:36:42.044Z,99271.63
2023-03-25T14:39:12.616Z,99269.09
2023-03-25T14:42:02.817Z,99267.93
2023-03-25T14:44:35.526Z,99269.20
2023-03-25T14:47:22.833Z,99263.45
2023-03-25T14:50:27.817Z,99262.23
2023-03-25T14:52:58.410Z,99259.89
2023-03-25T14:55:40.892Z,99250.52
2023-03-25T14:58:27.381Z,99246.54
2023-03-25T15:01:04.630Z,99241.83
2023-03-25T15:03:40.363Z,99233.79
2023-03-25T15:06:17.333Z,99235.70
2023-03-25T15:08:54.093Z,99232.55
2023-03-25T15:11:27.678Z,99237.38
2023-03-25T15:13:59.768Z,99239.41
2023-03-25T15:16:40.609Z,99234.85
2023-03-25T15:19:12.449Z,99234.82
2023-03-25T15:21:58.190Z,99234.21
2023-03-25T15:24:28.446Z,99233.95
2023-03-25T15:27:25.352Z,99231.42
2023-03-25T15:30:41.792Z,99230.88
2023-03-25T15:33:26.149Z,99225.79
2023-03-25T15:36:15.392Z,99223.27
2023-03-25T15:39:03.508Z,99220.49
2023-03-25T15:41:33.119Z,99217.19
2023-03-25T15:44:23.634Z,99210.85
2023-03-25T15:46:58.575Z,99206.71
2023-03-25T15:49:51.848Z,99204.45
2023-03-25T15:52:41.898Z,99197.88
2023-03-25T15:55:38.510Z,99191.39
2023-03-25T15:58:15.053Z,99188.54
2023-03-25T16:00:48.082Z,99183.15
2023-03-25T16:03:21.912Z,99181.61
2023-03-25T16:06:01.781Z,99181.34
2023-03-25T16:08:39.488Z,99178.30
2023-03-25T16:11:15.803Z,99182.09
2023-03-25T16:13:44.667Z,99183.00
2023-03-25T16:16:17.635Z,99187.30
2023-03-25T16:18:46.240Z,99187.75
2023-03-25T16:21:14.833Z,99189.05
2023-03-25T16:23:43.088Z,99183.73
2023-03-25T16:26:13.514Z,99184.77
2023-03-25T16:28:46.576Z,99184.64
2023-03-25T16:31:34.407Z,99186.89
2023-03-25T16:34:11.092Z,99190.66
2023-03-25T16:36:48.121Z,99193.95
2023-03-25T16:39:16.729Z,99198.69
2023-03-25T16:41:51.989Z,99202.73
2023-03-25T16:44:22.245Z,99206.64
2023-03-25T16:46:52.308Z,99210.96
2023-03-25T16:49:47.528Z,99215.06
2023-03-25T16:52:21.280Z,99216.77
2023-03-25T16:54:52.286Z,99214.30
2023-03-25T16:57:27.828Z,99210.48
2023-03-25T16:59:56.468Z,99191.20
2023-03-25T17:02:43.426Z,99184.45
2023-03-25T17:05:26.234Z,99174.48
2023-03-25T17:08:02.744Z,99173.19
2023-03-25T17:10:32.829Z,99177.17
2023-03-25T17:13:08.349Z,99176.73
2023-03-25T17:15:40.077Z,99179.41
2023-03-25T17:18:13.947Z,99182.38
2023-03-25T17:20:49.265Z,99178.96
2023-03-25T17:23:27.493Z,99181.01
2023-03-25T17:25:58.640Z,99177.98
2023-03-25T17:28:41.550Z,99182.00
2023-03-25T17:31:18.792Z,99183.54
2023-03-25T17:34:09.075Z,99186.02
2023-03-25T17:36:40.580Z,99189.54
2023-03-25T17:39:43.211Z,99200.15
2023-03-25T17:42:20.049Z,99202.52
2023-03-25T17:44:48.594Z,99209.03
2023-03-25T17:47:18.293Z,99210.05
2023-03-25T17:49:47.599Z,99207.34
2023-03-25T17:52:21.340Z,99202.88
2023-03-25T17:54:49.771Z,99199.30
2023-03-25T17:57:18.285Z,99200.41
2023-03-25T17:59:47.372Z,99196.29
2023-03-25T18:02:16.731Z,99187.88
2023-03-25T18:04:45.130Z,99183.02
2023-03-25T18:07:13.423Z,99176.20
2023-03-25T18:09:42.496Z,99170.47
2023-03-25T18:12:14.925Z,99163.34
2023-03-25T18:14:44.977Z,99158.77
2023-03-25T18:17:13.383Z,99156.29
2023-03-25T18:19:47.554Z,99147.00
2023-03-25T18:22:20.242Z,99144.88
2023-03-25T18:24:53.131Z,99138.95
2023-03-25T18:27:27.826Z,99134.83
2023-03-25T18:30:34.989Z,99135.02
2023-03-25T18:33:04.467Z,99135.48
2023-03-25T18:35:34.025Z,99134.48
2023-03-25T18:38:03.674Z,99133.60
2023-03-25T18:40:34.891Z,99131.10
2023-03-25T18:43:04.504Z,99131.72
2023-03-25T18:45:32.931Z,99134.33
2023-03-25T18:48:02.787Z,99137.54
2023-03-25T18:50:39.395Z,99141.16
2023-03-25T18:53:09.931Z,99143.01
2023-03-25T18:55:38.472Z,99149.27
2023-03-25T18:58:07.960Z,99144.14
2023-03-25T19:00:39.747Z,99142.52
2023-03-25T19:03:09.279Z,99135.70
2023-03-25T19:05:37.701Z,99133.38
2023-03-25T19:08:18.297Z,99130.77
2023-03-25T19:10:47.271Z,99132.77
2023-03-25T19:13:19.113Z,99133.90
2023-03-25T19:15:47.963Z,99131.46
2023-03-25T19:18:21.571Z,99126.98
2023-03-25T19:20:50.135Z,99124.39
2023-03-25T19:23:20.547Z,99125.85
2023-03-25T19:25:50.135Z,99127.48
2023-03-25T19:28:22.605Z,99125.69
2023-03-25T19:30:51.635Z,99121.15
2023-03-25T19:33:20.497Z,99118.26
2023-03-25T19:35:50.712Z,99113.70
2023-03-25T19:38:23.089Z,99113.86
2023-03-25T19:41:05.283Z,99111.73
2023-03-25T19:43:36.185Z,99111.95
2023-03-25T19:46:05.664Z,99109.38
2023-03-25T19:48:34.436Z,99111.55
2023-03-25T19:51:03.207Z,99109.11
2023-03-25T19:53:34.818Z,99109.89
2023-03-25T19:56:04.345Z,99108.09
2023-03-25T19:58:34.817Z,99100.04
2023-03-25T20:01:03.626Z,99111.20
2023-03-25T20:03:35.667Z,99114.27
2023-03-25T20:06:06.599Z,99119.62
2023-03-25T20:08:35.360Z,99120.34
2023-03-25T20:11:12.166Z,99111.86
2023-03-25T20:13:42.987Z,99113.34
2023-03-25T20:16:12.201Z,99114.05
2023-03-25T20:18:41.757Z,99107.72
2023-03-25T20:21:13.553Z,99103.86
2023-03-25T20:23:42.516Z,99097.10
2023-03-25T20:26:11.158Z,99083.77
2023-03-25T20:28:41.813Z,99079.19
2023-03-25T20:31:18.570Z,99080.13
2023-03-25T20:33:47.259Z,99078.06
2023-03-25T20:36:16.572Z,99074.09
2023-03-25T20:38:56.080Z,99072.54
2023-03-25T20:41:26.449Z,99072.08
2023-03-25T20:43:54.975Z,99077.65
2023-03-25T20:46:27.659Z,99074.65
2023-03-25T20:48:56.654Z,99073.41
2023-03-25T20:51:25.814Z,99070.92
2023-03-25T20:53:54.324Z,99070.71
2023-03-25T20:56:22.766Z,99068.91
2023-03-25T20:58:51.411Z,99065.46
2023-03-25T21:01:21.551Z,99064.09
2023-03-25T21:03:52.068Z,99066.70
2023-03-25T21:06:24.559Z,99062.86
2023-03-25T21:08:56.008Z,99066.73
2023-03-25T21:11:24.463Z,99066.93
2023-03-25T21:13:53.297Z,99064.11
2023-03-25T21:16:22.020Z,99060.08
2023-03-25T21:18:51.455Z,99049.25
2023-03-25T21:21:20.153Z,99047.25
2023-03-25T21:23:49.509Z,99046.67
2023-03-25T21:26:22.908Z,99045.59
2023-03-25T21:28:51.221Z,99040.52
2023-03-25T21:31:22.168Z,99038.77
2023-03-25T21:33:53.053Z,99039.02
2023-03-25T21:36:26.567Z,99035.09
2023-03-25T21:39:01.566Z,99031.30
2023-03-25T21:41:30.085Z,99029.17
2023-03-25T21:43:58.381Z,99026.73
2023-03-25T21:46:27.905Z,99028.53
2023-03-25T21:48:58.807Z,99021.59
2023-03-25T21:51:30.843Z,99024.45
2023-03-25T21:54:00.599Z,99024.88
2023-03-25T21:56:31.525Z,99022.10
2023-03-25T21:59:01.951Z,99025.97
2023-03-25T22:01:32.691Z,99023.84
2023-03-25T22:04:01.638Z,99022.30
2023-03-25T22:06:31.892Z,99018.07
2023-03-25T22:09:05.598Z,99016.02
2023-03-25T22:11:37.197Z,99012.95
2023-03-25T22:14:05.788Z,99013.02
2023-03-25T22:16:36.680Z,99007.02
2023-03-25T22:19:06.385Z,99007.05
2023-03-25T22:21:37.088Z,99009.36
2023-03-25T22:24:08.690Z,99010.31
2023-03-25T22:26:42.512Z,99006.39
2023-03-25T22:29:13.662Z,99002.40
2023-03-25T22:31:43.036Z,99002.40
2023-03-25T22:34:15.432Z,99009.35
2023-03-25T22:36:50.282Z,99020.51
2023-03-25T22:39:19.916Z,99020.45
2023-03-25T22:41:48.192Z,99013.07
2023-03-25T22:44:18.394Z,99007.33
2023-03-25T22:46:50.949Z,99010.95
2023-03-25T22:49:20.057Z,99011.27
2023-03-25T22:51:51.251Z,99008.27
2023-03-25T22:54:20.983Z,99010.75
2023-03-25T22:56:49.442Z,99006.98
2023-03-25T22:59:17.723Z,99008.98
2023-03-25T23:01:46.639Z,99015.02
2023-03-25T23:04:15.060Z,99007.48
2023-03-25T23:06:48.994Z,99006.14
2023-03-25T23:09:38.366Z,99010.09
2023-03-25T23:12:11.832Z,99009.27
2023-03-25T23:14:41.256Z,99013.48
2023-03-25T23:17:11.239Z,99012.86
2023-03-25T23:19:39.953Z,99007.46
2023-03-25T23:22:09.029Z,99006.02
2023-03-25T23:24:38.998Z,99007.32
2023-03-25T23:27:08.439Z,99003.83
2023-03-25T23:29:37.585Z,99003.52
2023-03-25T23:32:06.971Z,99001.85
2023-03-25T23:34:35.309Z,99003.58
2023-03-25T23:37:03.926Z,99003.85
2023-03-25T23:39:32.173Z,99001.28
2023-03-25T23:42:01.473Z,99001.40
2023-03-25T23:44:31.223Z,99000.39
2023-03-25T23:46:59.841Z,98995.59
2023-03-25T23:49:33.247Z,98993.63
2023-03-25T23:52:11.746Z,98987.77
2023-03-25T23:54:42.046Z,98985.84
2023-03-25T23:57:11.545Z,98986.02
2023-03-25T23:59:40.916Z,98983.27
